createdAt,value
2023-10-01T00:00:44.404Z,101667.63
2023-10-01T00:03:12.402Z,101667.31
2023-10-01T00:05:42.884Z,101663.72
2023-10-01T00:08:13.618Z,101655.78
2023-10-01T00:10:45.457Z,101657.06
2023-10-01T00:13:13.542Z,101653.94
2023-10-01T00:15:41.478Z,101652.03
2023-10-01T00:18:09.644Z,101646.66
2023-10-01T00:20:37.439Z,101643.38
2023-10-01T00:23:05.564Z,101649.88
2023-10-01T00:25:36.704Z,101648.66
2023-10-01T00:28:06.123Z,101643.53
2023-10-01T00:30:34.916Z,101655.88
2023-10-01T00:33:08.381Z,101645.63
2023-10-01T00:35:42.505Z,101652.19
2023-10-01T00:38:11.297Z,101650.25
2023-10-01T00:40:39.191Z,101656.97
2023-10-01T00:43:23.164Z,101648.13
2023-10-01T00:45:54.499Z,101651.31
2023-10-01T00:48:24.605Z,101648.88
2023-10-01T00:50:54.034Z,101647.13
2023-10-01T00:53:23.188Z,101648.47
2023-10-01T00:55:52.442Z,101652.28
2023-10-01T00:58:21.740Z,101660.06
2023-10-01T01:00:50.492Z,101655.78
2023-10-01T01:03:23.313Z,101651.84
2023-10-01T01:05:58.866Z,101655.84
2023-10-01T01:08:34.304Z,101648.47
2023-10-01T01:11:03.003Z,101655.53
2023-10-01T01:13:32.072Z,101660.84
2023-10-01T01:16:01.751Z,101669.91
2023-10-01T01:18:35.212Z,101670.50
2023-10-01T01:21:12.008Z,101666.56
2023-10-01T01:23:42.613Z,101669.38
2023-10-01T01:26:11.800Z,101665.50
2023-10-01T01:28:39.864Z,101660.31
2023-10-01T01:31:09.584Z,101663.09
2023-10-01T01:33:54.357Z,101663.69
2023-10-01T01:36:23.153Z,101670.16
2023-10-01T01:39:29.729Z,101665.44
2023-10-01T01:41:58.272Z,101664.28
2023-10-01T01:44:27.369Z,101670.16
2023-10-01T01:47:02.206Z,101658.63
2023-10-01T01:49:30.643Z,101658.88
2023-10-01T01:51:58.618Z,101653.69
2023-10-01T01:54:28.917Z,101657.34
2023-10-01T01:56:56.872Z,101652.41
2023-10-01T01:59:28.865Z,101660.56
2023-10-01T02:01:58.304Z,101661.25
2023-10-01T02:04:27.314Z,101656.88
2023-10-01T02:06:55.708Z,101658.84
2023-10-01T02:09:26.415Z,101658.19
2023-10-01T02:11:55.568Z,101665.22
2023-10-01T02:14:33.316Z,101663.91
2023-10-01T02:17:16.680Z,101661.56
2023-10-01T02:19:48.657Z,101654.81
2023-10-01T02:22:18.614Z,101657.41
2023-10-01T02:24:56.251Z,101656.50
2023-10-01T02:27:30.542Z,101661.00
2023-10-01T02:30:16.453Z,101656.78
2023-10-01T02:33:13.195Z,101668.28
2023-10-01T02:35:42.802Z,101658.72
2023-10-01T02:38:30.678Z,101660.56
2023-10-01T02:40:59.679Z,101655.06
2023-10-01T02:43:34.584Z,101661.69
2023-10-01T02:46:10.864Z,101660.47
2023-10-01T02:48:42.584Z,101660.16
2023-10-01T02:51:16.644Z,101660.00
2023-10-01T02:54:04.498Z,101665.06
2023-10-01T02:57:00.187Z,101663.38
2023-10-01T02:59:30.004Z,101657.63
2023-10-01T03:01:57.638Z,101657.91
2023-10-01T03:04:28.921Z,101667.84
2023-10-01T03:06:57.240Z,101661.53
2023-10-01T03:09:38.152Z,101660.41
2023-10-01T03:12:25.191Z,101659.63
2023-10-01T03:15:18.585Z,101665.31
2023-10-01T03:18:08.984Z,101660.72
2023-10-01T03:20:41.710Z,101660.97
2023-10-01T03:23:21.465Z,101665.91
2023-10-01T03:26:12.362Z,101658.34
2023-10-01T03:28:59.448Z,101664.09
2023-10-01T03:31:27.674Z,101661.97
2023-10-01T03:33:55.907Z,101650.19
2023-10-01T03:36:27.213Z,101655.38
2023-10-01T03:39:01.364Z,101667.44
2023-10-01T03:41:49.546Z,101662.69
2023-10-01T03:44:17.084Z,101667.44
2023-10-01T03:46:49.183Z,101668.72
2023-10-01T03:49:38.430Z,101674.44
2023-10-01T03:52:10.693Z,101667.59
2023-10-01T03:54:54.037Z,101664.78
2023-10-01T03:57:21.610Z,101665.31
2023-10-01T03:59:54.205Z,101666.59
2023-10-01T04:02:47.882Z,101664.63
2023-10-01T04:05:35.090Z,101668.13
2023-10-01T04:08:09.230Z,101663.94
2023-10-01T04:10:39.637Z,101667.00
2023-10-01T04:13:13.982Z,101669.53
2023-10-01T04:15:48.310Z,101677.78
2023-10-01T04:18:17.058Z,101670.22
2023-10-01T04:20:50.797Z,101666.59
2023-10-01T04:23:33.532Z,101668.53
2023-10-01T04:26:07.644Z,101672.44
2023-10-01T04:28:37.269Z,101673.84
2023-10-01T04:31:16.384Z,101678.34
2023-10-01T04:33:48.739Z,101683.69
2023-10-01T04:36:17.676Z,101680.75
2023-10-01T04:38:49.764Z,101680.84
2023-10-01T04:41:18.068Z,101680.13
2023-10-01T04:44:05.347Z,101690.78
2023-10-01T04:46:38.721Z,101700.72
2023-10-01T04:49:21.873Z,101701.81
2023-10-01T04:52:02.461Z,101694.69
2023-10-01T04:54:30.549Z,101695.69
2023-10-01T04:56:59.271Z,101699.88
2023-10-01T04:59:28.841Z,101713.38
2023-10-01T05:02:00.466Z,101704.84
2023-10-01T05:04:28.615Z,101711.28
2023-10-01T05:07:05.838Z,101713.25
2023-10-01T05:09:37.301Z,101708.34
2023-10-01T05:12:05.249Z,101715.91
2023-10-01T05:14:33.760Z,101713.97
2023-10-01T05:17:09.694Z,101714.66
2023-10-01T05:19:41.802Z,101713.38
2023-10-01T05:22:10.066Z,101712.25
2023-10-01T05:24:38.192Z,101722.22
2023-10-01T05:27:19.431Z,101723.50
2023-10-01T05:29:48.250Z,101736.16
2023-10-01T05:32:19.776Z,101727.97
2023-10-01T05:34:48.156Z,101739.59
2023-10-01T05:37:26.578Z,101738.50
2023-10-01T05:42:35.244Z,101753.16
2023-10-01T05:45:06.140Z,101756.13
2023-10-01T05:47:47.249Z,101754.03
2023-10-01T05:50:15.815Z,101755.88
2023-10-01T05:52:46.059Z,101757.34
2023-10-01T05:55:16.995Z,101760.28
2023-10-01T05:57:45.304Z,101756.78
2023-10-01T06:00:20.076Z,101770.81
2023-10-01T06:02:49.042Z,101770.53
2023-10-01T06:05:44.905Z,101774.84
2023-10-01T06:08:16.687Z,101776.53
2023-10-01T06:11:00.880Z,101778.59
2023-10-01T06:13:31.784Z,101775.06
2023-10-01T06:16:13.084Z,101787.31
2023-10-01T06:18:51.732Z,101784.59
2023-10-01T06:21:21.556Z,101794.94
2023-10-01T06:23:52.144Z,101801.69
2023-10-01T06:26:34.681Z,101810.66
2023-10-01T06:29:03.824Z,101813.13
2023-10-01T06:31:50.129Z,101822.19
2023-10-01T06:34:23.150Z,101812.34
2023-10-01T06:37:00.764Z,101817.97
2023-10-01T06:39:34.289Z,101813.53
2023-10-01T06:42:22.968Z,101817.59
2023-10-01T06:45:00.391Z,101818.78
2023-10-01T06:47:28.965Z,101818.78
2023-10-01T06:50:06.450Z,101818.22
2023-10-01T06:52:43.902Z,101821.00
2023-10-01T06:55:29.972Z,101818.78
2023-10-01T06:57:57.989Z,101819.03
2023-10-01T07:00:31.780Z,101822.19
2023-10-01T07:03:18.316Z,101826.00
2023-10-01T07:05:47.589Z,101832.09
2023-10-01T07:08:19.557Z,101827.22
2023-10-01T07:10:52.235Z,101835.22
2023-10-01T07:13:23.676Z,101832.59
2023-10-01T07:15:53.972Z,101839.91
2023-10-01T07:18:23.444Z,101844.91
2023-10-01T07:20:51.466Z,101851.31
2023-10-01T07:23:23.426Z,101848.72
2023-10-01T07:26:02.108Z,101843.19
2023-10-01T07:28:31.571Z,101848.50
2023-10-01T07:31:03.666Z,101852.94
2023-10-01T07:33:32.353Z,101856.22
2023-10-01T07:36:01.541Z,101860.31
2023-10-01T07:38:50.647Z,101854.09
2023-10-01T07:41:19.154Z,101859.66
2023-10-01T07:43:47.789Z,101859.75
2023-10-01T07:46:16.102Z,101864.09
2023-10-01T07:48:48.675Z,101859.81
2023-10-01T07:51:29.964Z,101865.94
2023-10-01T07:54:03.777Z,101867.38
2023-10-01T07:56:34.384Z,101869.41
2023-10-01T07:59:21.199Z,101860.50
2023-10-01T08:02:08.976Z,101864.25
2023-10-01T08:04:52.654Z,101867.22
2023-10-01T08:07:24.253Z,101863.56
2023-10-01T08:09:59.030Z,101859.50
2023-10-01T08:12:52.193Z,101866.94
2023-10-01T08:15:33.563Z,101868.94
2023-10-01T08:18:23.899Z,101870.78
2023-10-01T08:21:01.844Z,101883.50
2023-10-01T08:23:32.805Z,101880.78
2023-10-01T08:26:22.028Z,101878.31
2023-10-01T08:29:00.177Z,101886.41
2023-10-01T08:31:48.568Z,101886.38
2023-10-01T08:34:28.753Z,101881.84
2023-10-01T08:36:58.889Z,101890.31
2023-10-01T08:39:49.015Z,101883.81
2023-10-01T08:42:18.758Z,101889.59
2023-10-01T08:44:56.033Z,101891.47
2023-10-01T08:47:28.736Z,101889.09
2023-10-01T08:50:19.919Z,101895.31
2023-10-01T08:53:02.379Z,101890.38
2023-10-01T08:55:42.294Z,101895.66
2023-10-01T08:58:26.967Z,101892.03
2023-10-01T09:01:13.559Z,101895.38
2023-10-01T09:03:50.006Z,101903.53
2023-10-01T09:06:34.316Z,101895.38
2023-10-01T09:09:21.347Z,101906.31
2023-10-01T09:11:52.173Z,101897.50
2023-10-01T09:14:36.328Z,101898.81
2023-10-01T09:17:26.751Z,101895.75
2023-10-01T09:19:57.416Z,101895.31
2023-10-01T09:22:34.730Z,101900.50
2023-10-01T09:25:27.075Z,101899.03
2023-10-01T09:28:21.280Z,101895.66
2023-10-01T09:31:03.183Z,101892.66
2023-10-01T09:33:33.605Z,101896.41
2023-10-01T09:36:06.062Z,101898.41
2023-10-01T09:38:34.310Z,101890.38
2023-10-01T09:41:02.742Z,101897.25
2023-10-01T09:43:35.245Z,101887.75
2023-10-01T09:46:04.532Z,101885.91
2023-10-01T09:48:34.271Z,101887.44
2023-10-01T09:51:16.829Z,101888.16
2023-10-01T09:53:55.316Z,101888.88
2023-10-01T09:56:28.911Z,101881.88
2023-10-01T09:59:05.018Z,101880.66
2023-10-01T10:01:35.632Z,101872.88
2023-10-01T10:04:09.552Z,101867.69
2023-10-01T10:06:43.460Z,101880.69
2023-10-01T10:09:27.036Z,101870.00
2023-10-01T10:11:55.941Z,101873.41
2023-10-01T10:14:30.026Z,101872.34
2023-10-01T10:17:21.031Z,101863.94
2023-10-01T10:20:23.669Z,101855.75
2023-10-01T10:23:20.554Z,101861.16
2023-10-01T10:25:48.747Z,101861.41
2023-10-01T10:28:26.588Z,101857.19
2023-10-01T10:31:34.520Z,101857.94
2023-10-01T10:34:26.697Z,101854.19
2023-10-01T10:36:56.282Z,101871.09
2023-10-01T10:39:46.088Z,101860.31
2023-10-01T10:42:34.682Z,101857.44
2023-10-01T10:45:21.466Z,101852.50
2023-10-01T10:48:00.524Z,101851.66
2023-10-01T10:50:54.032Z,101845.19
2023-10-01T10:53:38.917Z,101843.91
2023-10-01T10:56:09.032Z,101846.94
2023-10-01T10:58:41.647Z,101847.41
2023-10-01T11:01:17.911Z,101844.97
2023-10-01T11:03:58.869Z,101840.84
2023-10-01T11:06:41.068Z,101842.81
2023-10-01T11:09:24.393Z,101838.56
2023-10-01T11:11:54.376Z,101840.69
2023-10-01T11:14:22.706Z,101841.78
2023-10-01T11:16:51.399Z,101837.38
2023-10-01T11:19:27.109Z,101843.59
2023-10-01T11:22:00.580Z,101837.09
2023-10-01T11:24:32.042Z,101835.94
2023-10-01T11:27:24.264Z,101828.00
2023-10-01T11:30:17.811Z,101817.53
2023-10-01T11:33:03.009Z,101823.84
2023-10-01T11:35:35.208Z,101817.28
2023-10-01T11:38:09.070Z,101817.47
2023-10-01T11:40:57.672Z,101812.09
2023-10-01T11:43:29.592Z,101805.75
2023-10-01T11:46:25.567Z,101806.13
2023-10-01T11:49:16.555Z,101806.13
2023-10-01T11:51:51.833Z,101807.28
2023-10-01T11:54:21.670Z,101792.09
2023-10-01T11:57:07.448Z,101803.53
2023-10-01T11:59:38.568Z,101794.56
2023-10-01T12:02:25.549Z,101781.41
2023-10-01T12:04:59.866Z,101787.63
2023-10-01T12:07:41.216Z,101783.88
2023-10-01T12:10:31.344Z,101779.63
2023-10-01T12:13:02.886Z,101778.16
2023-10-01T12:15:38.896Z,101770.81
2023-10-01T12:18:17.299Z,101766.41
2023-10-01T12:20:51.769Z,101764.72
2023-10-01T12:23:22.569Z,101767.41
2023-10-01T12:25:54.314Z,101772.22
2023-10-01T12:28:26.916Z,101767.19
2023-10-01T12:30:59.720Z,101763.50
2023-10-01T12:33:45.149Z,101763.97
2023-10-01T12:36:35.243Z,101757.69
2023-10-01T12:39:10.481Z,101745.28
2023-10-01T12:41:58.080Z,101755.69
2023-10-01T12:44:30.173Z,101736.59
2023-10-01T12:47:02.262Z,101742.38
2023-10-01T12:49:34.663Z,101736.59
2023-10-01T12:52:10.257Z,101736.53
2023-10-01T12:54:39.358Z,101742.25
2023-10-01T12:57:11.098Z,101720.28
2023-10-01T12:59:42.254Z,101731.53
2023-10-01T13:02:27.947Z,101734.50
2023-10-01T13:05:16.431Z,101727.03
2023-10-01T13:07:47.405Z,101720.78
2023-10-01T13:10:18.486Z,101734.06
2023-10-01T13:12:58.675Z,101724.53
2023-10-01T13:15:35.229Z,101723.34
2023-10-01T13:18:10.821Z,101720.41
2023-10-01T13:21:00.554Z,101712.63
2023-10-01T13:23:33.486Z,101713.66
2023-10-01T13:26:08.433Z,101704.88
2023-10-01T13:28:55.715Z,101706.34
2023-10-01T13:31:29.304Z,101703.94
2023-10-01T13:34:22.759Z,101704.97
2023-10-01T13:36:56.535Z,101697.31
2023-10-01T13:39:45.890Z,101700.38
2023-10-01T13:42:32.190Z,101690.00
2023-10-01T13:45:18.521Z,101692.44
2023-10-01T13:48:05.271Z,101690.75
2023-10-01T13:50:51.538Z,101681.88
2023-10-01T13:53:37.713Z,101676.56
2023-10-01T13:56:24.197Z,101680.00
2023-10-01T13:59:11.630Z,101675.66
2023-10-01T14:01:58.424Z,101679.88
2023-10-01T14:04:44.566Z,101677.75
2023-10-01T14:07:30.798Z,101673.13
2023-10-01T14:09:59.692Z,101677.53
2023-10-01T14:12:43.012Z,101680.59
2023-10-01T14:15:26.161Z,101671.50
2023-10-01T14:18:02.235Z,101669.03
2023-10-01T14:20:45.520Z,101664.38
2023-10-01T14:23:24.585Z,101667.72
2023-10-01T14:26:12.364Z,101660.78
2023-10-01T14:28:46.867Z,101655.69
2023-10-01T14:31:21.081Z,101655.28
2023-10-01T14:33:49.022Z,101659.34
2023-10-01T14:36:21.667Z,101659.97
2023-10-01T14:38:52.716Z,101659.94
2023-10-01T14:41:20.608Z,101658.38
2023-10-01T14:43:55.659Z,101656.63
2023-10-01T14:46:31.545Z,101653.66
2023-10-01T14:49:08.484Z,101660.03
2023-10-01T14:51:49.771Z,101649.63
2023-10-01T14:54:18.831Z,101652.13
2023-10-01T14:56:57.604Z,101649.69
2023-10-01T14:59:32.670Z,101650.91
2023-10-01T15:02:02.209Z,101652.09
2023-10-01T15:04:37.354Z,101657.13
2023-10-01T15:07:07.717Z,101649.00
2023-10-01T15:09:38.536Z,101655.25
2023-10-01T15:12:17.017Z,101654.59
2023-10-01T15:15:14.801Z,101660.22
2023-10-01T15:17:46.739Z,101649.97
2023-10-01T15:20:29.806Z,101647.22
2023-10-01T15:22:58.474Z,101649.16
2023-10-01T15:25:34.741Z,101646.41
2023-10-01T15:28:10.890Z,101653.22
2023-10-01T15:30:46.208Z,101642.03
2023-10-01T15:33:19.135Z,101655.16
2023-10-01T15:35:50.223Z,101653.22
2023-10-01T15:38:28.701Z,101653.19
2023-10-01T15:40:56.947Z,101655.13
2023-10-01T15:43:24.722Z,101658.00
2023-10-01T15:45:53.013Z,101653.34
2023-10-01T15:48:20.763Z,101654.59
2023-10-01T15:50:50.542Z,101658.81
2023-10-01T15:53:22.988Z,101661.66
2023-10-01T15:55:57.543Z,101664.44
2023-10-01T15:58:25.823Z,101661.81
2023-10-01T16:00:54.747Z,101658.94
2023-10-01T16:03:31.443Z,101666.59
2023-10-01T16:06:11.704Z,101669.84
2023-10-01T16:08:45.169Z,101666.09
2023-10-01T16:11:14.543Z,101671.47
2023-10-01T16:13:55.065Z,101670.88
2023-10-01T16:16:28.873Z,101671.09
2023-10-01T16:18:57.448Z,101672.16
2023-10-01T16:21:26.761Z,101673.19
2023-10-01T16:23:57.646Z,101674.19
2023-10-01T16:26:26.720Z,101670.25
2023-10-01T16:28:56.957Z,101675.84
2023-10-01T16:31:29.151Z,101675.63
2023-10-01T16:34:01.879Z,101676.69
2023-10-01T16:36:39.365Z,101679.75
2023-10-01T16:39:18.539Z,101674.47
2023-10-01T16:41:48.625Z,101673.84
2023-10-01T16:44:16.405Z,101679.16
2023-10-01T16:46:46.298Z,101683.44
2023-10-01T16:49:14.730Z,101683.72
2023-10-01T16:51:45.180Z,101685.75
2023-10-01T16:54:16.820Z,101693.00
2023-10-01T16:56:48.549Z,101692.50
2023-10-01T16:59:23.341Z,101696.44
2023-10-01T17:01:59.996Z,101689.91
2023-10-01T17:04:29.405Z,101699.06
2023-10-01T17:06:59.662Z,101704.63
2023-10-01T17:09:28.104Z,101699.06
2023-10-01T17:11:56.606Z,101701.34
2023-10-01T17:14:24.302Z,101697.22
2023-10-01T17:16:52.074Z,101702.19
2023-10-01T17:19:33.812Z,101698.22
2023-10-01T17:22:08.972Z,101710.97
2023-10-01T17:24:45.257Z,101709.47
2023-10-01T17:27:21.200Z,101711.59
2023-10-01T17:29:50.673Z,101708.63
2023-10-01T17:32:20.250Z,101708.75
2023-10-01T17:34:49.307Z,101713.38
2023-10-01T17:37:26.893Z,101723.31
2023-10-01T17:40:01.983Z,101722.94
2023-10-01T17:42:32.519Z,101724.78
2023-10-01T17:45:02.106Z,101722.66
2023-10-01T17:47:32.293Z,101728.31
2023-10-01T17:50:05.335Z,101728.88
2023-10-01T17:52:37.955Z,101731.41
2023-10-01T17:55:07.299Z,101736.69
2023-10-01T17:57:45.138Z,101739.22
2023-10-01T18:00:33.152Z,101746.44
2023-10-01T18:03:02.661Z,101743.66
2023-10-01T18:05:31.025Z,101746.78
2023-10-01T18:08:07.221Z,101741.31
2023-10-01T18:10:41.501Z,101750.13
2023-10-01T18:13:23.910Z,101748.00
2023-10-01T18:15:56.844Z,101755.00
2023-10-01T18:18:27.529Z,101755.00
2023-10-01T18:21:03.436Z,101757.13
2023-10-01T18:23:31.256Z,101754.38
2023-10-01T18:26:00.462Z,101754.16
2023-10-01T18:28:31.044Z,101754.59
2023-10-01T18:31:01.906Z,101760.81
2023-10-01T18:33:31.174Z,101757.66
2023-10-01T18:36:00.381Z,101767.84
2023-10-01T18:38:29.826Z,101766.69
2023-10-01T18:40:58.584Z,101767.69
2023-10-01T18:43:26.961Z,101774.94
2023-10-01T18:45:58.442Z,101778.28
2023-10-01T18:48:35.497Z,101771.78
2023-10-01T18:51:03.824Z,101779.97
2023-10-01T18:53:31.926Z,101780.97
2023-10-01T18:56:00.255Z,101777.16
2023-10-01T18:58:29.063Z,101774.81
2023-10-01T19:00:58.859Z,101781.22
2023-10-01T19:03:27.290Z,101786.91
2023-10-01T19:06:04.588Z,101788.97
2023-10-01T19:08:34.550Z,101794.78
2023-10-01T19:11:04.576Z,101795.50
2023-10-01T19:13:34.667Z,101799.16
2023-10-01T19:16:04.157Z,101796.97
2023-10-01T19:18:34.913Z,101802.69
2023-10-01T19:21:03.979Z,101798.47
2023-10-01T19:23:32.825Z,101800.47
2023-10-01T19:26:07.273Z,101811.38
2023-10-01T19:28:36.413Z,101808.22
2023-10-01T19:31:12.953Z,101808.53
2023-10-01T19:33:45.966Z,101812.88
2023-10-01T19:36:16.928Z,101813.53
2023-10-01T19:38:48.707Z,101808.00
2023-10-01T19:41:19.741Z,101809.66
2023-10-01T19:43:50.334Z,101810.97
2023-10-01T19:46:18.205Z,101815.50
2023-10-01T19:48:51.090Z,101814.88
2023-10-01T19:51:26.426Z,101813.53
2023-10-01T19:54:02.746Z,101824.91
2023-10-01T19:56:32.195Z,101825.75
2023-10-01T19:59:10.043Z,101824.75
2023-10-01T20:01:41.925Z,101829.25
2023-10-01T20:04:11.330Z,101831.25
2023-10-01T20:06:41.031Z,101836.00
2023-10-01T20:09:24.810Z,101832.56
2023-10-01T20:11:57.855Z,101842.44
2023-10-01T20:14:35.151Z,101847.00
2023-10-01T20:17:03.913Z,101845.44
2023-10-01T20:19:33.755Z,101852.69
2023-10-01T20:22:21.799Z,101856.31
2023-10-01T20:24:52.584Z,101854.22
2023-10-01T20:27:20.627Z,101852.38
2023-10-01T20:29:49.671Z,101853.13
2023-10-01T20:32:18.119Z,101851.97
2023-10-01T20:34:46.127Z,101853.81
2023-10-01T20:37:17.732Z,101853.13
2023-10-01T20:39:45.941Z,101853.38
2023-10-01T20:42:18.956Z,101852.66
2023-10-01T20:44:51.354Z,101865.47
2023-10-01T20:47:23.982Z,101860.38
2023-10-01T20:49:55.150Z,101859.38
2023-10-01T20:52:32.102Z,101869.25
2023-10-01T20:55:19.567Z,101868.44
2023-10-01T20:57:49.334Z,101870.69
2023-10-01T21:00:38.261Z,101863.69
2023-10-01T21:03:07.267Z,101857.66
2023-10-01T21:05:34.956Z,101861.31
2023-10-01T21:08:18.195Z,101862.91
2023-10-01T21:10:46.265Z,101857.06
2023-10-01T21:13:28.554Z,101864.41
2023-10-01T21:16:04.660Z,101858.88
2023-10-01T21:18:34.639Z,101865.34
2023-10-01T21:21:02.791Z,101862.16
2023-10-01T21:23:30.508Z,101862.44
2023-10-01T21:26:00.070Z,101863.75
2023-10-01T21:28:28.129Z,101864.75
2023-10-01T21:30:56.148Z,101866.69
2023-10-01T21:33:27.283Z,101856.66
2023-10-01T21:35:56.342Z,101863.78
2023-10-01T21:38:25.927Z,101866.03
2023-10-01T21:40:54.751Z,101866.78
2023-10-01T21:43:26.064Z,101857.13
2023-10-01T21:46:03.305Z,101865.03
2023-10-01T21:48:31.695Z,101869.81
2023-10-01T21:51:02.643Z,101870.06
2023-10-01T21:53:35.520Z,101865.63
2023-10-01T21:56:12.049Z,101865.56
2023-10-01T21:58:49.844Z,101870.53
2023-10-01T22:01:37.089Z,101866.94
2023-10-01T22:04:07.477Z,101857.38
2023-10-01T22:06:38.582Z,101864.34
2023-10-01T22:09:16.525Z,101870.75
2023-10-01T22:11:44.698Z,101863.34
2023-10-01T22:14:17.047Z,101866.38
2023-10-01T22:16:45.835Z,101863.41
2023-10-01T22:19:18.906Z,101868.53
2023-10-01T22:21:50.738Z,101864.97
2023-10-01T22:24:27.940Z,101865.53
2023-10-01T22:26:59.837Z,101867.22
2023-10-01T22:29:29.407Z,101864.28
2023-10-01T22:32:06.566Z,101867.72
2023-10-01T22:34:38.518Z,101867.81
2023-10-01T22:37:13.248Z,101871.09
2023-10-01T22:39:49.831Z,101872.09
2023-10-01T22:42:24.698Z,101864.09
2023-10-01T22:44:55.228Z,101868.59
2023-10-01T22:47:23.946Z,101868.56
2023-10-01T22:49:57.031Z,101868.28
2023-10-01T22:52:32.725Z,101868.28
2023-10-01T22:55:02.407Z,101871.91
2023-10-01T22:57:47.416Z,101869.94
2023-10-01T23:00:23.609Z,101873.03
2023-10-01T23:03:04.632Z,101864.44
2023-10-01T23:05:44.476Z,101867.34
2023-10-01T23:08:12.684Z,101867.75
2023-10-01T23:10:42.224Z,101863.06
2023-10-01T23:13:14.532Z,101865.75
2023-10-01T23:15:43.524Z,101868.88
2023-10-01T23:18:19.696Z,101872.13
2023-10-01T23:20:52.914Z,101868.72
2023-10-01T23:23:29.603Z,101867.34
2023-10-01T23:26:12.957Z,101871.16
2023-10-01T23:28:42.902Z,101875.84
2023-10-01T23:31:17.542Z,101872.47
2023-10-01T23:33:51.785Z,101873.75
2023-10-01T23:36:19.703Z,101878.63
2023-10-01T23:38:56.753Z,101873.25
2023-10-01T23:41:46.179Z,101875.25
2023-10-01T23:44:14.275Z,101875.00
2023-10-01T23:46:42.090Z,101872.47
2023-10-01T23:49:12.986Z,101873.28
2023-10-01T23:51:40.899Z,101868.22
2023-10-01T23:54:10.220Z,101868.16
2023-10-01T23:56:40.051Z,101869.13
2023-10-01T23:59:26.674Z,101861.13
